Latest Weather Observations for Williamson

IDQ60801

Issued at 4:32 pm EST Thursday 25 May 2017 (issued every 30 minutes, with the page automatically refreshed every 10 minutes)

About weather observations | Map of weather stations | Latest weather observations for QLD | Other Formats
Station Details ID: 033195 Name: WILLIAMSON Lat: -22.47 Lon: 150.18 Height: 27.6 m
Data from the previous 72 hours. | See also: Recent months at Williamson
Date/Time
EST
Temp
°C
App
Temp
°C
Dew
Point
°C
Rel
Hum
%
Delta-T
°C
Wind Press
QNH
hPa
Press
MSL
hPa
Rain since
9am
mm
Dir  Spd
km/h
Gust
km/h
Spd
kts
Gust
kts
25/04:30pm 26.3 27.0 17.1 57 5.7 NE 9 15 5 8 1016.3 1016.2 0.2
25/04:00pm 27.0 26.2 15.1 48 7.2 NNE 13 17 7 9 1016.1 1016.0 0.2
25/03:30pm 26.5 25.9 14.6 48 7.1 NE 11 19 6 10 1016.0 1015.9 0.2
25/03:00pm 27.9 28.0 15.5 46 7.6 NE 9 17 5 9 1015.9 1015.8 0.2
25/02:30pm 28.6 27.8 12.9 38 9.2 SE 9 17 5 9 1015.9 1015.8 0.2
25/02:00pm 28.7 28.2 13.8 40 8.9 SW 9 19 5 10 1016.1 1016.0 0.2
25/01:30pm 28.6 29.0 15.2 44 8.2 S 7 15 4 8 1016.4 1016.3 0.2
25/01:00pm 28.0 27.8 14.6 44 8.1 SSW 9 15 5 8 1016.8 1016.7 0.2
25/12:30pm 27.9 27.2 14.2 43 8.2 SSW 11 19 6 10 1017.3 1017.2 0.2
25/12:00pm 26.8 26.0 15.2 49 7.0 SW 13 17 7 9 1017.8 1017.7 0.2
25/11:30am 26.9 26.1 15.0 48 7.2 SSW 13 20 7 11 1018.2 1018.1 0.2
25/11:00am 25.8 25.5 15.5 53 6.2 S 11 17 6 9 1018.6 1018.5 0.2
25/10:30am 25.3 25.2 15.9 56 5.7 S 11 17 6 9 1018.9 1018.8 0.2
25/10:00am 24.8 25.1 17.0 62 4.8 S 11 19 6 10 1019.2 1019.1 0.2
25/09:30am 23.7 24.0 17.0 66 4.1 S 11 17 6 9 1019.4 1019.3 0.0
25/09:00am 22.3 23.7 17.9 76 2.7 S 7 11 4 6 1019.3 1019.2 0.0
25/08:30am 20.3 21.6 17.5 84 1.7 SSE 7 9 4 5 1019.2 1019.1 0.0
25/08:00am 18.7 20.1 17.7 94 0.6 S 7 13 4 7 1018.9 1018.8 0.0
25/07:30am 17.1 17.7 16.8 98 0.2 S 9 13 5 7 1018.6 1018.5 0.0
25/07:00am 14.8 14.9 14.5 98 0.2 SSE 7 9 4 5 1018.2 1018.1 0.0
25/06:30am 13.2 13.0 12.9 98 0.2 SE 6 9 3 5 1017.7 1017.6 0.0
25/06:00am 13.3 13.5 13.0 98 0.2 SSE 4 7 2 4 1017.4 1017.3 0.0
25/05:30am 13.4 14.0 13.1 98 0.2 SSE 2 7 1 4 1017.1 1017.0 0.0
25/05:00am 13.4 14.4 13.1 98 0.2 CALM 0 6 0 3 1016.9 1016.8 0.0
25/04:30am 13.5 14.5 13.2 98 0.2 CALM 0 0 0 0 1016.8 1016.7 0.0
25/04:00am 13.5 14.5 13.2 98 0.2 CALM 0 0 0 0 1017.0 1016.9 0.0
25/03:30am 13.6 14.6 13.3 98 0.2 CALM 0 0 0 0 1017.2 1017.1 0.0
25/03:00am 13.9 15.0 13.6 98 0.2 CALM 0 0 0 0 1017.1 1017.0 0.0
25/02:30am 14.0 15.2 13.7 98 0.2 CALM 0 7 0 4 1017.2 1017.1 0.0
25/02:00am 14.1 15.3 13.8 98 0.2 CALM 0 0 0 0 1017.3 1017.2 0.0
25/01:30am 14.2 15.4 13.9 98 0.2 CALM 0 0 0 0 1017.5 1017.4 0.0
25/01:00am 14.3 15.6 14.0 98 0.2 CALM 0 0 0 0 1017.9 1017.8 0.0
25/12:30am 14.7 16.1 14.4 98 0.2 CALM 0 0 0 0 1018.2 1018.1 0.0
25/12:00am 15.2 16.4 14.9 98 0.2 SSE 2 7 1 4 1018.3 1018.2 0.0
 
Date/Time
EST
Temp
°C
App
Temp
°C
Dew
Point
°C
Rel
Hum
%
Delta-T
°C
Wind Press
QNH
hPa
Press
MSL
hPa
Rain since
9am
mm
Dir  Spd
km/h
Gust
km/h
Spd
kts
Gust
kts
24/11:30pm 15.3 16.9 15.0 98 0.2 CALM 0 0 0 0 1018.3 1018.2 0.0
24/11:00pm 15.5 17.2 15.2 98 0.2 CALM 0 0 0 0 1018.3 1018.2 0.0
24/10:30pm 15.8 17.6 15.5 98 0.2 CALM 0 0 0 0 1018.6 1018.5 0.0
24/10:00pm 16.4 18.4 16.1 98 0.2 CALM 0 0 0 0 1018.8 1018.7 0.0
24/09:30pm 16.6 18.7 16.3 98 0.2 CALM 0 0 0 0 1018.7 1018.6 0.0
24/09:00pm 17.1 19.4 16.8 98 0.2 CALM 0 0 0 0 1018.7 1018.6 0.0
24/08:30pm 17.4 19.8 16.9 97 0.3 CALM 0 0 0 0 1018.6 1018.5 0.0
24/08:00pm 17.8 20.2 17.0 95 0.5 CALM 0 0 0 0 1018.4 1018.3 0.0
24/07:30pm 18.3 20.7 17.0 92 0.8 CALM 0 0 0 0 1018.2 1018.1 0.0
24/07:00pm 19.1 21.7 17.4 90 1.0 CALM 0 0 0 0 1018.1 1018.0 0.0
24/06:30pm 19.6 21.8 16.6 83 1.8 CALM 0 0 0 0 1017.9 1017.8 0.0
24/06:00pm 20.7 22.5 16.5 77 2.5 N 2 6 1 3 1017.7 1017.6 0.0
24/05:30pm 22.4 24.0 16.0 67 3.9 NNE 2 7 1 4 1017.5 1017.4 0.0
24/05:00pm 24.5 25.6 15.7 58 5.3 NNE 4 7 2 4 1017.3 1017.2 0.0
24/04:30pm 25.3 25.3 15.3 54 6.0 NNE 9 15 5 8 1017.1 1017.0 0.0
24/04:00pm 26.0 25.7 14.5 49 6.9 NE 9 15 5 8 1016.8 1016.7 0.0
24/03:30pm 26.4 25.9 14.8 49 7.0 NE 11 17 6 9 1016.7 1016.6 0.0
24/03:00pm 26.3 26.7 15.4 51 6.6 NE 7 15 4 8 1016.5 1016.4 0.0
24/02:30pm 27.0 27.1 14.4 46 7.6 SE 7 11 4 6 1016.6 1016.5 0.0
24/02:00pm 27.4 27.1 13.4 42 8.3 SE 7 15 4 8 1016.8 1016.7 0.0
24/01:30pm 27.3 26.3 13.3 42 8.3 ESE 11 17 6 9 1017.0 1016.9 0.0
24/01:00pm 27.1 26.0 13.1 42 8.2 SE 11 19 6 10 1017.4 1017.3 0.0
24/12:30pm 27.1 25.5 13.8 44 7.9 SSE 15 24 8 13 1018.0 1017.9 0.0
24/12:00pm 26.7 25.9 14.1 46 7.5 SSE 11 20 6 11 1018.6 1018.5 0.0
24/11:30am 25.7 25.9 15.7 54 6.1 S 9 17 5 9 1019.0 1018.9 0.0
24/11:00am 25.0 25.6 16.7 60 5.1 S 9 15 5 8 1019.4 1019.3 0.0
24/10:30am 24.1 25.5 17.4 66 4.2 SSE 6 11 3 6 1020.0 1019.9 0.0
24/10:00am 23.5 24.7 17.3 68 3.8 SSE 7 11 4 6 1020.3 1020.2 0.0
24/09:30am 22.4 23.9 18.8 80 2.3 SW 9 11 5 6 1020.4 1020.3 0.0
24/09:00am 21.6 23.9 19.9 90 1.1 SW 7 11 4 6 1020.4 1020.3 0.0
24/08:30am 20.0 22.7 19.5 97 0.3 SSW 4 9 2 5 1020.1 1020.0 0.0
24/08:00am 18.5 21.0 18.2 98 0.2 S 2 7 1 4 1020.0 1019.9 0.0
24/07:30am 17.0 18.9 16.7 98 0.2 SSE 2 6 1 3 1019.8 1019.7 0.0
24/07:00am 15.5 17.2 15.2 98 0.2 CALM 0 0 0 0 1019.5 1019.4 0.0
24/06:30am 15.5 17.2 15.2 98 0.2 CALM 0 0 0 0 1019.4 1019.3 0.0
24/06:00am 15.3 16.9 15.0 98 0.2 CALM 0 0 0 0 1019.2 1019.1 0.0
24/05:30am 14.7 16.1 14.4 98 0.2 CALM 0 0 0 0 1018.9 1018.8 0.0
24/05:00am 13.9 15.0 13.6 98 0.2 CALM 0 0 0 0 1018.6 1018.5 0.0
24/04:30am 14.1 15.3 13.8 98 0.2 CALM 0 0 0 0 1018.4 1018.3 0.0
24/04:00am 14.2 15.4 13.9 98 0.2 CALM 0 0 0 0 1018.3 1018.2 0.0
24/03:30am 14.4 15.7 14.1 98 0.2 CALM 0 0 0 0 1018.3 1018.2 0.0
24/03:00am 14.7 16.1 14.4 98 0.2 CALM 0 0 0 0 1018.2 1018.1 0.0
24/02:30am 14.8 16.2 14.5 98 0.2 CALM 0 0 0 0 1018.3 1018.2 0.0
24/02:00am 14.9 16.4 14.6 98 0.2 CALM 0 0 0 0 1018.3 1018.2 0.0
24/01:30am 15.2 16.8 14.9 98 0.2 CALM 0 0 0 0 1018.4 1018.3 0.0
24/01:00am 15.3 16.9 15.0 98 0.2 CALM 0 0 0 0 1018.6 1018.5 0.0
24/12:30am 15.5 17.2 15.2 98 0.2 CALM 0 0 0 0 1018.7 1018.6 0.0
24/12:00am 15.7 17.5 15.4 98 0.2 CALM 0 0 0 0 1018.9 1018.8 0.0
 
Date/Time
EST
Temp
°C
App
Temp
°C
Dew
Point
°C
Rel
Hum
%
Delta-T
°C
Wind Press
QNH
hPa
Press
MSL
hPa
Rain since
9am
mm
Dir  Spd
km/h
Gust
km/h
Spd
kts
Gust
kts
23/11:30pm 16.0 17.9 15.7 98 0.2 CALM 0 0 0 0 1019.0 1018.9 0.0
23/11:00pm 16.1 17.3 15.8 98 0.2 S 4 7 2 4 1019.3 1019.2 0.0
23/10:30pm 16.4 18.4 16.1 98 0.2 CALM 0 0 0 0 1019.3 1019.2 0.0
23/10:00pm 17.0 19.3 16.7 98 0.2 CALM 0 0 0 0 1019.3 1019.2 0.0
23/09:30pm 17.3 19.7 17.0 98 0.2 CALM 0 0 0 0 1019.3 1019.2 0.0
23/09:00pm 17.5 19.5 17.0 97 0.3 SSE 2 7 1 4 1019.4 1019.3 0.0
23/08:30pm 17.9 20.5 17.4 97 0.3 CALM 0 0 0 0 1019.1 1019.0 0.0
23/08:00pm 18.2 20.8 17.4 95 0.5 CALM 0 0 0 0 1019.1 1019.0 0.0
23/07:30pm 18.7 21.3 17.5 93 0.7 CALM 0 0 0 0 1018.9 1018.8 0.0
23/07:00pm 19.5 21.9 17.1 86 1.5 CALM 0 0 0 0 1018.7 1018.6 0.0
23/06:30pm 20.5 22.9 16.9 80 2.2 CALM 0 0 0 0 1018.4 1018.3 0.0
23/06:00pm 22.0 23.2 16.9 73 3.1 E 6 11 3 6 1018.1 1018.0 0.0
23/05:30pm 23.3 23.9 16.8 67 4.0 E 9 11 5 6 1017.8 1017.7 0.0
23/05:00pm 24.4 25.2 17.4 65 4.3 ESE 9 15 5 8 1017.6 1017.5 0.0
23/04:30pm 24.9 25.6 17.1 62 4.8 ESE 9 17 5 9 1017.3 1017.2 0.0
23/04:00pm 26.4 27.4 17.7 58 5.5 NE 9 17 5 9 1016.9 1016.8 0.0
23/03:30pm 25.8 26.6 17.4 59 5.3 ESE 9 17 5 9 1016.7 1016.6 0.0
23/03:00pm 26.8 27.8 17.8 57 5.7 E 9 15 5 8 1016.8 1016.7 0.0
23/02:30pm 26.3 27.9 17.9 60 5.3 ENE 6 9 3 5 1016.8 1016.7 0.0
23/02:00pm 26.3 27.4 17.1 57 5.7 SE 7 13 4 7 1017.0 1016.9 0.0
23/01:30pm 27.6 28.7 17.2 53 6.5 SE 7 13 4 7 1017.1 1017.0 0.0
23/01:00pm 25.9 26.9 17.8 61 5.1 SSE 9 15 5 8 1017.5 1017.4 0.0
23/12:30pm 26.7 27.6 17.5 57 5.8 SE 9 15 5 8 1018.0 1017.9 0.0
23/12:00pm 26.8 26.8 17.3 56 5.9 ESE 13 20 7 11 1018.6 1018.5 0.0
23/11:30am 25.4 25.4 17.3 61 5.1 SE 13 24 7 13 1019.2 1019.1 0.0
23/11:00am 25.6 25.7 17.5 61 5.1 SE 13 20 7 11 1019.6 1019.5 0.0
23/10:30am 25.5 26.1 17.7 62 4.9 SE 11 17 6 9 1019.8 1019.7 0.0
23/10:00am 25.6 25.9 18.0 63 4.8 SE 13 20 7 11 1020.0 1019.9 0.0
23/09:30am 25.2 25.5 17.9 64 4.6 SE 13 26 7 14 1020.2 1020.1 0.0
23/09:00am 24.4 25.0 18.6 70 3.7 SE 13 22 7 12 1020.2 1020.1 0.2
23/08:30am 22.8 24.1 19.4 81 2.2 SSE 11 17 6 9 1020.0 1019.9 0.2
23/08:00am 21.7 23.8 20.2 91 1.0 S 9 13 5 7 1020.0 1019.9 0.2
23/07:30am 20.3 22.9 20.0 98 0.2 SSE 6 9 3 5 1019.8 1019.7 0.2
23/07:00am 19.4 22.3 19.1 98 0.2 SSE 2 7 1 4 1019.6 1019.5 0.2
23/06:30am 19.3 21.4 19.0 98 0.2 SSE 6 9 3 5 1019.3 1019.2 0.2
23/06:00am 19.4 21.0 19.1 98 0.2 S 9 13 5 7 1019.0 1018.9 0.0
23/05:30am 19.4 21.0 19.1 98 0.2 S 9 15 5 8 1018.7 1018.6 0.0
23/05:00am 19.4 21.0 19.1 98 0.2 S 9 15 5 8 1018.3 1018.2 0.0
23/04:30am 19.2 21.1 18.9 98 0.2 S 7 9 4 5 1018.3 1018.2 0.0
23/04:00am 19.2 21.3 18.9 98 0.2 S 6 9 3 5 1018.3 1018.2 0.0
23/03:30am 19.5 21.1 19.2 98 0.2 S 9 13 5 7 1018.3 1018.2 0.0
23/03:00am 19.5 21.5 19.2 98 0.2 SW 7 9 4 5 1018.3 1018.2 0.0
23/02:30am 19.5 21.7 19.2 98 0.2 WSW 6 7 3 4 1018.3 1018.2 0.0
23/02:00am 19.9 22.1 19.6 98 0.2 S 7 11 4 6 1018.3 1018.2 0.0
23/01:30am 20.1 22.4 19.8 98 0.2 SSW 7 13 4 7 1018.4 1018.3 0.0
23/01:00am 20.1 22.2 19.4 96 0.4 SSW 7 9 4 5 1018.5 1018.4 0.0
23/12:30am 20.9 23.5 19.2 90 1.1 S 4 7 2 4 1018.6 1018.5 0.0
23/12:00am 21.6 23.7 19.3 87 1.5 SSE 7 15 4 8 1018.7 1018.6 0.0
 
Date/Time
EST
Temp
°C
App
Temp
°C
Dew
Point
°C
Rel
Hum
%
Delta-T
°C
Wind Press
QNH
hPa
Press
MSL
hPa
Rain since
9am
mm
Dir  Spd
km/h
Gust
km/h
Spd
kts
Gust
kts
22/11:30pm 21.5 23.7 19.1 86 1.5 SSE 6 9 3 5 1018.7 1018.6 0.0
22/11:00pm 21.5 23.7 18.3 82 2.0 SSW 4 7 2 4 1018.8 1018.7 0.0
22/10:30pm 22.7 24.4 18.5 77 2.6 ESE 7 15 4 8 1018.9 1018.8 0.0
22/10:00pm 22.7 24.1 18.7 78 2.5 ESE 9 15 5 8 1019.1 1019.0 0.0
22/09:30pm 22.7 24.5 18.7 78 2.5 SE 7 17 4 9 1019.1 1019.0 0.0
22/09:00pm 22.5 25.2 18.7 79 2.4 SE 2 13 1 7 1019.1 1019.0 0.0
22/08:30pm 22.0 23.8 18.4 80 2.3 SE 6 7 3 4 1019.1 1019.0 0.0
22/08:00pm 22.6 24.6 18.8 79 2.4 ESE 6 11 3 6 1018.9 1018.8 0.0
22/07:30pm 23.0 24.0 18.7 77 2.7 SE 11 24 6 13 1018.5 1018.4 0.0
22/07:00pm 23.1 25.1 19.1 78 2.5 ESE 7 17 4 9 1018.2 1018.1 0.0
22/06:30pm 23.1 24.5 18.6 76 2.8 SE 9 19 5 10 1017.7 1017.6 0.0
22/06:00pm 23.5 24.1 18.6 74 3.1 ESE 13 19 7 10 1017.3 1017.2 0.0
22/05:30pm 23.9 24.6 18.8 73 3.2 ESE 13 20 7 11 1017.1 1017.0 0.0
22/05:00pm 24.5 24.8 18.7 70 3.7 ESE 15 24 8 13 1016.8 1016.7 0.0

Other Formats:

Comma delimited format used in spreadsheet applications
http://www.bom.gov.au/fwo/IDQ60801/IDQ60801.95370.axf

JavaScript Object Notation format (JSON) in row-major order
http://www.bom.gov.au/fwo/IDQ60801/IDQ60801.95370.json